sensor_id;sensor_type;location;lat;lon;timestamp;pressure;altitude;pressure_sealevel;temperature;humidity
68489;BME280;55481;48.764;8.936;2023-03-15T00:00:41;96600;;;1.1;81
68489;BME280;55481;48.764;8.936;2023-03-15T00:05:41;96620;;;1.2;80.5
68489;BME280;55481;48.764;8.936;2023-03-15T00:08:04;96630;;;1.1;80.5
68489;BME280;55481;48.764;8.936;2023-03-15T00:10:40;96630;;;1;81
68489;BME280;55481;48.764;8.936;2023-03-15T00:13:13;96640;;;1.1;80.5
68489;BME280;55481;48.764;8.936;2023-03-15T00:15:45;96640;;;1.1;80.5
68489;BME280;55481;48.764;8.936;2023-03-15T00:18:08;96650;;;1.1;80.5
68489;BME280;55481;48.764;8.936;2023-03-15T00:20:40;96650;;;1.3;80.5
68489;BME280;55481;48.764;8.936;2023-03-15T00:23:10;96660;;;1.3;80.5
68489;BME280;55481;48.764;8.936;2023-03-15T00:25:43;96660;;;1.5;80
68489;BME280;55481;48.764;8.936;2023-03-15T00:28:12;96660;;;1.5;80
68489;BME280;55481;48.764;8.936;2023-03-15T00:30:44;96660;;;1.3;80
68489;BME280;55481;48.764;8.936;2023-03-15T00:33:21;96660;;;1.1;80.5
68489;BME280;55481;48.764;8.936;2023-03-15T00:35:52;96670;;;1.1;80.5
68489;BME280;55481;48.764;8.936;2023-03-15T00:40:47;96680;;;0.9;81
68489;BME280;55481;48.764;8.936;2023-03-15T00:43:18;96680;;;0.9;81
68489;BME280;55481;48.764;8.936;2023-03-15T00:45:49;96690;;;1.2;81
68489;BME280;55481;48.764;8.936;2023-03-15T00:48:21;96690;;;1.2;80.5
68489;BME280;55481;48.764;8.936;2023-03-15T00:50:59;96700;;;1.3;80.5
68489;BME280;55481;48.764;8.936;2023-03-15T00:55:46;96710;;;1.2;80.5
68489;BME280;55481;48.764;8.936;2023-03-15T01:03:18;96720;;;0.8;81
68489;BME280;55481;48.764;8.936;2023-03-15T01:13:22;96720;;;0.8;81
68489;BME280;55481;48.764;8.936;2023-03-15T01:15:52;96730;;;0.7;81
68489;BME280;55481;48.764;8.936;2023-03-15T01:18:23;96730;;;0.6;81
68489;BME280;55481;48.764;8.936;2023-03-15T01:20:54;96740;;;0.6;81
68489;BME280;55481;48.764;8.936;2023-03-15T01:23:38;96740;;;0.6;81
68489;BME280;55481;48.764;8.936;2023-03-15T01:26:10;96740;;;0.6;81
68489;BME280;55481;48.764;8.936;2023-03-15T01:31:03;96740;;;0.7;81
68489;BME280;55481;48.764;8.936;2023-03-15T01:33:33;96740;;;0.6;80.5
68489;BME280;55481;48.764;8.936;2023-03-15T01:36:04;96740;;;0.6;81
68489;BME280;55481;48.764;8.936;2023-03-15T01:38:41;96740;;;0.5;81
68489;BME280;55481;48.764;8.936;2023-03-15T01:41:12;96750;;;0.5;81
68489;BME280;55481;48.764;8.936;2023-03-15T01:48:46;96750;;;0.5;81
68489;BME280;55481;48.764;8.936;2023-03-15T01:51:23;96760;;;0.5;80.5
68489;BME280;55481;48.764;8.936;2023-03-15T01:53:46;96760;;;0.5;81
68489;BME280;55481;48.764;8.936;2023-03-15T01:58:39;96760;;;0.5;80.5
68489;BME280;55481;48.764;8.936;2023-03-15T02:01:10;96770;;;0.5;81
68489;BME280;55481;48.764;8.936;2023-03-15T02:06:17;96770;;;0.4;81
68489;BME280;55481;48.764;8.936;2023-03-15T02:11:32;96780;;;0.4;81
68489;BME280;55481;48.764;8.936;2023-03-15T02:13:49;96780;;;0.4;81
68489;BME280;55481;48.764;8.936;2023-03-15T02:18:43;96790;;;0.5;80.5
68489;BME280;55481;48.764;8.936;2023-03-15T02:23:46;96790;;;0.4;81
68489;BME280;55481;48.764;8.936;2023-03-15T02:26:25;96800;;;0.3;81
68489;BME280;55481;48.764;8.936;2023-03-15T02:33:43;96800;;;0.2;81
68489;BME280;55481;48.764;8.936;2023-03-15T02:36:18;96800;;;0.1;81
68489;BME280;55481;48.764;8.936;2023-03-15T02:38:43;96800;;;0.2;81
68489;BME280;55481;48.764;8.936;2023-03-15T02:41:15;96800;;;0.2;81
68489;BME280;55481;48.764;8.936;2023-03-15T02:43:45;96810;;;0.1;81
68489;BME280;55481;48.764;8.936;2023-03-15T02:46:15;96810;;;0.2;81
68489;BME280;55481;48.764;8.936;2023-03-15T02:48:46;96820;;;0.2;80.5
68489;BME280;55481;48.764;8.936;2023-03-15T02:51:25;96820;;;0.2;80.5
68489;BME280;55481;48.764;8.936;2023-03-15T03:03:57;96850;;;0;80.5
68489;BME280;55481;48.764;8.936;2023-03-15T03:06:27;96850;;;0;81
68489;BME280;55481;48.764;8.936;2023-03-15T03:08:59;96860;;;0.1;81
68489;BME280;55481;48.764;8.936;2023-03-15T03:11:22;96860;;;0.1;80.5
68489;BME280;55481;48.764;8.936;2023-03-15T03:13:53;96870;;;0.2;80.5
68489;BME280;55481;48.764;8.936;2023-03-15T03:16:24;96880;;;0.1;81
68489;BME280;55481;48.764;8.936;2023-03-15T03:18:55;96880;;;0.1;81
68489;BME280;55481;48.764;8.936;2023-03-15T03:26:27;96890;;;0.2;80.5
68489;BME280;55481;48.764;8.936;2023-03-15T03:31:35;96910;;;0.1;81
68489;BME280;55481;48.764;8.936;2023-03-15T03:34:06;96900;;;0.1;81
68489;BME280;55481;48.764;8.936;2023-03-15T03:36:36;96900;;;0.1;80.5
68489;BME280;55481;48.764;8.936;2023-03-15T03:41:31;96910;;;0;81
68489;BME280;55481;48.764;8.936;2023-03-15T03:44:02;96920;;;0;81
68489;BME280;55481;48.764;8.936;2023-03-15T03:46:33;96920;;;0;81
68489;BME280;55481;48.764;8.936;2023-03-15T03:54:05;96930;;;0;81
68489;BME280;55481;48.764;8.936;2023-03-15T03:56:36;96940;;;0;81
68489;BME280;55481;48.764;8.936;2023-03-15T04:01:50;96950;;;0;81
68489;BME280;55481;48.764;8.936;2023-03-15T04:04:27;96950;;;0.1;80.5
68489;BME280;55481;48.764;8.936;2023-03-15T04:09:15;96960;;;0;81
68489;BME280;55481;48.764;8.936;2023-03-15T04:11:46;96960;;;0;81
68489;BME280;55481;48.764;8.936;2023-03-15T04:14:16;96960;;;0;81
68489;BME280;55481;48.764;8.936;2023-03-15T04:16:47;96960;;;0;81
68489;BME280;55481;48.764;8.936;2023-03-15T04:19:19;96960;;;0;81
68489;BME280;55481;48.764;8.936;2023-03-15T04:21:56;96970;;;0;81
68489;BME280;55481;48.764;8.936;2023-03-15T04:31:59;96970;;;0;80.5
68489;BME280;55481;48.764;8.936;2023-03-15T04:34:29;96970;;;0.1;80.5
68489;BME280;55481;48.764;8.936;2023-03-15T04:36:59;96970;;;0.1;80.5
68489;BME280;55481;48.764;8.936;2023-03-15T04:39:30;96980;;;0;80.5
68489;BME280;55481;48.764;8.936;2023-03-15T04:41:53;96980;;;0;80.5
68489;BME280;55481;48.764;8.936;2023-03-15T04:44:24;96980;;;0;80.5
68489;BME280;55481;48.764;8.936;2023-03-15T04:46:55;96990;;;0;80.5
68489;BME280;55481;48.764;8.936;2023-03-15T04:57:17;96990;;;-0.2;81
68489;BME280;55481;48.764;8.936;2023-03-15T04:59:35;96980;;;-0.3;81
68489;BME280;55481;48.764;8.936;2023-03-15T05:02:05;96990;;;-0.3;80.5
68489;BME280;55481;48.764;8.936;2023-03-15T05:06:59;96980;;;-0.3;81
68489;BME280;55481;48.764;8.936;2023-03-15T05:09:30;96980;;;-0.3;81
68489;BME280;55481;48.764;8.936;2023-03-15T05:12:01;96980;;;-0.4;81
68489;BME280;55481;48.764;8.936;2023-03-15T05:14:32;96970;;;-0.4;81
68489;BME280;55481;48.764;8.936;2023-03-15T05:17:09;96970;;;-0.4;81
68489;BME280;55481;48.764;8.936;2023-03-15T05:19:50;96970;;;-0.4;80.5
68489;BME280;55481;48.764;8.936;2023-03-15T05:24:34;96970;;;-0.4;81
68489;BME280;55481;48.764;8.936;2023-03-15T05:27:05;96970;;;-0.4;81
68489;BME280;55481;48.764;8.936;2023-03-15T05:29:36;96980;;;-0.4;81
68489;BME280;55481;48.764;8.936;2023-03-15T05:32:06;96980;;;-0.3;81
68489;BME280;55481;48.764;8.936;2023-03-15T05:34:37;96990;;;-0.4;81
68489;BME280;55481;48.764;8.936;2023-03-15T05:37:08;96980;;;-0.4;81
68489;BME280;55481;48.764;8.936;2023-03-15T05:39:41;96980;;;-0.3;81
68489;BME280;55481;48.764;8.936;2023-03-15T05:42:10;96980;;;-0.3;81
68489;BME280;55481;48.764;8.936;2023-03-15T05:44:47;96980;;;-0.1;81
68489;BME280;55481;48.764;8.936;2023-03-15T05:47:18;96990;;;0;80.5
68489;BME280;55481;48.764;8.936;2023-03-15T05:52:15;97000;;;0;80.5
68489;BME280;55481;48.764;8.936;2023-03-15T05:57:22;97000;;;0;80.5
68489;BME280;55481;48.764;8.936;2023-03-15T05:59:52;97000;;;0;80.5
68489;BME280;55481;48.764;8.936;2023-03-15T06:04:46;97000;;;0;80.5
68489;BME280;55481;48.764;8.936;2023-03-15T06:07:16;97000;;;0;80.5
68489;BME280;55481;48.764;8.936;2023-03-15T06:09:48;97010;;;0;80.5
68489;BME280;55481;48.764;8.936;2023-03-15T06:12:26;97010;;;0;80.5
68489;BME280;55481;48.764;8.936;2023-03-15T06:14:56;97010;;;0.1;80.5
68489;BME280;55481;48.764;8.936;2023-03-15T06:25:00;97010;;;0.2;80.5
68489;BME280;55481;48.764;8.936;2023-03-15T06:27:31;97020;;;0.3;80.5
68489;BME280;55481;48.764;8.936;2023-03-15T06:30:00;97020;;;0.4;80.5
68489;BME280;55481;48.764;8.936;2023-03-15T06:32:31;97020;;;0.5;80.5
68489;BME280;55481;48.764;8.936;2023-03-15T06:37:25;97020;;;0.6;80
68489;BME280;55481;48.764;8.936;2023-03-15T06:40:03;97020;;;0.6;80.5
68489;BME280;55481;48.764;8.936;2023-03-15T06:44:58;97020;;;0.8;80
68489;BME280;55481;48.764;8.936;2023-03-15T06:50:05;97020;;;1;80
68489;BME280;55481;48.764;8.936;2023-03-15T06:52:35;97030;;;1.2;79.5
68489;BME280;55481;48.764;8.936;2023-03-15T06:55:06;97020;;;1.3;79.5
68489;BME280;55481;48.764;8.936;2023-03-15T06:59:59;97030;;;1.3;79.5
68489;BME280;55481;48.764;8.936;2023-03-15T07:02:30;97030;;;1.3;80
68489;BME280;55481;48.764;8.936;2023-03-15T07:05:03;97030;;;1.4;80
68489;BME280;55481;48.764;8.936;2023-03-15T07:07:45;97020;;;1.5;79.5
68489;BME280;55481;48.764;8.936;2023-03-15T07:12:47;97030;;;1.6;79.5
68489;BME280;55481;48.764;8.936;2023-03-15T07:15:11;97030;;;1.7;79.5
68489;BME280;55481;48.764;8.936;2023-03-15T07:17:41;97030;;;1.7;79.5
68489;BME280;55481;48.764;8.936;2023-03-15T07:22:35;97040;;;1.7;79.5
68489;BME280;55481;48.764;8.936;2023-03-15T07:25:06;97040;;;1.8;80
68489;BME280;55481;48.764;8.936;2023-03-15T07:27:36;97040;;;2;79.5
68489;BME280;55481;48.764;8.936;2023-03-15T07:37:34;97050;;;2.5;79
68489;BME280;55481;48.764;8.936;2023-03-15T07:40:04;97050;;;2.7;79
68489;BME280;55481;48.764;8.936;2023-03-15T07:42:35;97050;;;2.8;79
68489;BME280;55481;48.764;8.936;2023-03-15T07:50:12;97060;;;2.7;79.5
68489;BME280;55481;48.764;8.936;2023-03-15T07:52:43;97060;;;2.9;79
68489;BME280;55481;48.764;8.936;2023-03-15T07:55:15;97060;;;2.9;79
68489;BME280;55481;48.764;8.936;2023-03-15T08:05:11;97050;;;3.6;78
68489;BME280;55481;48.764;8.936;2023-03-15T08:07:42;97050;;;3.8;78
68489;BME280;55481;48.764;8.936;2023-03-15T08:10:13;97060;;;3.8;78.5
68489;BME280;55481;48.764;8.936;2023-03-15T08:12:44;97060;;;3.9;78
68489;BME280;55481;48.764;8.936;2023-03-15T08:15:14;97060;;;4.1;78.5
68489;BME280;55481;48.764;8.936;2023-03-15T08:17:46;97060;;;4.3;78
68489;BME280;55481;48.764;8.936;2023-03-15T08:20:16;97060;;;4.5;78
68489;BME280;55481;48.764;8.936;2023-03-15T08:22:47;97060;;;4.2;78
68489;BME280;55481;48.764;8.936;2023-03-15T08:25:19;97060;;;4.2;78.5
68489;BME280;55481;48.764;8.936;2023-03-15T08:35:27;97070;;;3.4;80.5
68489;BME280;55481;48.764;8.936;2023-03-15T08:38:00;97070;;;4;80
68489;BME280;55481;48.764;8.936;2023-03-15T08:40:29;97080;;;4.4;79
68489;BME280;55481;48.764;8.936;2023-03-15T08:43:00;97080;;;4.5;78.5
68489;BME280;55481;48.764;8.936;2023-03-15T08:48:01;97080;;;4.5;78.5
68489;BME280;55481;48.764;8.936;2023-03-15T08:50:32;97090;;;4.6;78.5
68489;BME280;55481;48.764;8.936;2023-03-15T08:53:02;97080;;;4.7;78.5
68489;BME280;55481;48.764;8.936;2023-03-15T09:00:29;97080;;;5.3;77.5
68489;BME280;55481;48.764;8.936;2023-03-15T09:05:30;97090;;;4.7;78.5
68489;BME280;55481;48.764;8.936;2023-03-15T09:08:04;97090;;;4.3;80
68489;BME280;55481;48.764;8.936;2023-03-15T09:10:32;97090;;;4.5;80
68489;BME280;55481;48.764;8.936;2023-03-15T09:15:39;97090;;;4.6;79
68489;BME280;55481;48.764;8.936;2023-03-15T09:18:10;97090;;;4.3;79.5
68489;BME280;55481;48.764;8.936;2023-03-15T09:20:41;97100;;;4.3;80
68489;BME280;55481;48.764;8.936;2023-03-15T09:23:12;97100;;;4.2;80
68489;BME280;55481;48.764;8.936;2023-03-15T09:30:57;97100;;;4;80
68489;BME280;55481;48.764;8.936;2023-03-15T09:33:33;97110;;;4.3;79.5
68489;BME280;55481;48.764;8.936;2023-03-15T09:35:51;97110;;;4.7;79
68489;BME280;55481;48.764;8.936;2023-03-15T09:40:44;97110;;;5.5;77
68489;BME280;55481;48.764;8.936;2023-03-15T09:44:23;97100;;;5.7;77
68489;BME280;55481;48.764;8.936;2023-03-15T09:45:57;97100;;;6.1;76
68489;BME280;55481;48.764;8.936;2023-03-15T09:53:15;97100;;;6;77
68489;BME280;55481;48.764;8.936;2023-03-15T09:55:43;97110;;;6.3;76.5
68489;BME280;55481;48.764;8.936;2023-03-15T09:58:15;97110;;;5.9;77.5
68489;BME280;55481;48.764;8.936;2023-03-15T10:00:48;97110;;;5.8;78
68489;BME280;55481;48.764;8.936;2023-03-15T10:03:25;97120;;;5.6;78.5
68489;BME280;55481;48.764;8.936;2023-03-15T10:08:17;97110;;;6.5;77.5
68489;BME280;55481;48.764;8.936;2023-03-15T10:10:50;97100;;;6.9;76
68489;BME280;55481;48.764;8.936;2023-03-15T10:13:24;97100;;;7;76
68489;BME280;55481;48.764;8.936;2023-03-15T10:23:22;97090;;;6.9;77
68489;BME280;55481;48.764;8.936;2023-03-15T10:25:58;97090;;;7.1;77
68489;BME280;55481;48.764;8.936;2023-03-15T10:31:00;97080;;;7.7;76
68489;BME280;55481;48.764;8.936;2023-03-15T10:33:31;97070;;;8.4;75.5
68489;BME280;55481;48.764;8.936;2023-03-15T10:38:26;97070;;;8;75.5
68489;BME280;55481;48.764;8.936;2023-03-15T10:40:57;97080;;;7.3;77.5
68489;BME280;55481;48.764;8.936;2023-03-15T10:43:28;97090;;;7;78.5
68489;BME280;55481;48.764;8.936;2023-03-15T10:51:14;97100;;;6.8;78.5
68489;BME280;55481;48.764;8.936;2023-03-15T10:54:00;97090;;;6.8;78
68489;BME280;55481;48.764;8.936;2023-03-15T10:56:28;97100;;;6.9;78
68489;BME280;55481;48.764;8.936;2023-03-15T10:58:45;97090;;;7.1;77.5
68489;BME280;55481;48.764;8.936;2023-03-15T11:03:37;97100;;;7;77.5
68489;BME280;55481;48.764;8.936;2023-03-15T11:06:17;97090;;;6.7;78
68489;BME280;55481;48.764;8.936;2023-03-15T11:08:42;97090;;;6.5;78.5
68489;BME280;55481;48.764;8.936;2023-03-15T11:13:34;97090;;;6.7;78.5
68489;BME280;55481;48.764;8.936;2023-03-15T11:16:06;97080;;;6.4;78.5
68489;BME280;55481;48.764;8.936;2023-03-15T11:28:38;97090;;;6.4;78
68489;BME280;55481;48.764;8.936;2023-03-15T11:31:11;97100;;;6.5;78
68489;BME280;55481;48.764;8.936;2023-03-15T11:33:44;97100;;;6.3;78
68489;BME280;55481;48.764;8.936;2023-03-15T11:36:25;97100;;;6.3;78
68489;BME280;55481;48.764;8.936;2023-03-15T11:38:54;97100;;;6.2;78.5
68489;BME280;55481;48.764;8.936;2023-03-15T11:41:27;97100;;;6.3;78
68489;BME280;55481;48.764;8.936;2023-03-15T11:45:00;97100;;;6.3;78
68489;BME280;55481;48.764;8.936;2023-03-15T11:46:23;97100;;;6.3;78
68489;BME280;55481;48.764;8.936;2023-03-15T11:48:52;97100;;;6.3;78
68489;BME280;55481;48.764;8.936;2023-03-15T11:51:20;97090;;;6.3;78
68489;BME280;55481;48.764;8.936;2023-03-15T11:54:15;97090;;;6.4;78
68489;BME280;55481;48.764;8.936;2023-03-15T11:59:07;97090;;;6.9;77
68489;BME280;55481;48.764;8.936;2023-03-15T12:01:45;97090;;;6.7;77.5
68489;BME280;55481;48.764;8.936;2023-03-15T12:08:54;97090;;;6.8;77.5
68489;BME280;55481;48.764;8.936;2023-03-15T12:14:04;97090;;;7.1;77
68489;BME280;55481;48.764;8.936;2023-03-15T12:16:21;97090;;;7.3;76.5
68489;BME280;55481;48.764;8.936;2023-03-15T12:23:57;97090;;;7.8;75.5
68489;BME280;55481;48.764;8.936;2023-03-15T12:26:37;97090;;;8.8;73.5
68489;BME280;55481;48.764;8.936;2023-03-15T12:29:05;97090;;;7.8;75.5
68489;BME280;55481;48.764;8.936;2023-03-15T12:32:06;97090;;;7.3;77
68489;BME280;55481;48.764;8.936;2023-03-15T12:34:02;97100;;;6.9;78
68489;BME280;55481;48.764;8.936;2023-03-15T12:36:34;97100;;;6.5;79
68489;BME280;55481;48.764;8.936;2023-03-15T12:39:21;97100;;;6.6;78.5
68489;BME280;55481;48.764;8.936;2023-03-15T12:44:38;97100;;;6;79
68489;BME280;55481;48.764;8.936;2023-03-15T12:49:05;97110;;;5.8;79.5
68489;BME280;55481;48.764;8.936;2023-03-15T12:51:40;97110;;;5.8;79.5
68489;BME280;55481;48.764;8.936;2023-03-15T12:54:02;97110;;;6;78.5
68489;BME280;55481;48.764;8.936;2023-03-15T12:56:36;97110;;;6.3;78
68489;BME280;55481;48.764;8.936;2023-03-15T12:59:06;97100;;;7.4;76
68489;BME280;55481;48.764;8.936;2023-03-15T13:04:12;97090;;;8.4;74
68489;BME280;55481;48.764;8.936;2023-03-15T13:06:45;97090;;;9.4;71.5
68489;BME280;55481;48.764;8.936;2023-03-15T13:09:24;97100;;;8.5;73.5
68489;BME280;55481;48.764;8.936;2023-03-15T13:16:43;97110;;;6.7;78
68489;BME280;55481;48.764;8.936;2023-03-15T13:19:13;97110;;;6.6;78
68489;BME280;55481;48.764;8.936;2023-03-15T13:24:14;97120;;;6.1;78.5
68489;BME280;55481;48.764;8.936;2023-03-15T13:26:45;97130;;;5.9;79
68489;BME280;55481;48.764;8.936;2023-03-15T13:29:14;97140;;;5.5;79.5
68489;BME280;55481;48.764;8.936;2023-03-15T13:31:44;97150;;;5.1;79.5
68489;BME280;55481;48.764;8.936;2023-03-15T13:34:19;97170;;;4.7;80
68489;BME280;55481;48.764;8.936;2023-03-15T13:39:21;97170;;;4.1;80.5
68489;BME280;55481;48.764;8.936;2023-03-15T13:41:47;97170;;;3.8;81
68489;BME280;55481;48.764;8.936;2023-03-15T13:44:20;97170;;;3.7;81
68489;BME280;55481;48.764;8.936;2023-03-15T13:46:49;97180;;;3.4;81.5
68489;BME280;55481;48.764;8.936;2023-03-15T13:49:21;97180;;;3.5;81
68489;BME280;55481;48.764;8.936;2023-03-15T13:56:59;97160;;;3.5;81
68489;BME280;55481;48.764;8.936;2023-03-15T13:59:31;97160;;;4.9;79
68489;BME280;55481;48.764;8.936;2023-03-15T14:02:01;97150;;;4.6;78
68489;BME280;55481;48.764;8.936;2023-03-15T14:07:34;97140;;;5.1;78.5
68489;BME280;55481;48.764;8.936;2023-03-15T14:09:33;97130;;;5;78
68489;BME280;55481;48.764;8.936;2023-03-15T14:14:28;97120;;;5.6;78
68489;BME280;55481;48.764;8.936;2023-03-15T14:22:01;97110;;;6;77
68489;BME280;55481;48.764;8.936;2023-03-15T14:24:36;97100;;;5.9;78.5
68489;BME280;55481;48.764;8.936;2023-03-15T14:27:13;97110;;;6.2;77.5
68489;BME280;55481;48.764;8.936;2023-03-15T14:29:34;97110;;;6;78
68489;BME280;55481;48.764;8.936;2023-03-15T14:32:04;97110;;;6.3;78
68489;BME280;55481;48.764;8.936;2023-03-15T14:34:45;97110;;;6;78
68489;BME280;55481;48.764;8.936;2023-03-15T14:37:06;97130;;;5.7;79
68489;BME280;55481;48.764;8.936;2023-03-15T14:49:45;97150;;;4.6;80
68489;BME280;55481;48.764;8.936;2023-03-15T14:54:47;97160;;;4.3;80
68489;BME280;55481;48.764;8.936;2023-03-15T14:57:17;97180;;;3.5;80.5
68489;BME280;55481;48.764;8.936;2023-03-15T14:59:48;97180;;;2.7;81.5
68489;BME280;55481;48.764;8.936;2023-03-15T15:02:14;97180;;;2.6;83
68489;BME280;55481;48.764;8.936;2023-03-15T15:04:43;97180;;;2.6;82.5
68489;BME280;55481;48.764;8.936;2023-03-15T15:07:14;97180;;;2.7;82.5
68489;BME280;55481;48.764;8.936;2023-03-15T15:14:46;97190;;;3.3;80.5
68489;BME280;55481;48.764;8.936;2023-03-15T15:17:17;97190;;;3.3;80.5
68489;BME280;55481;48.764;8.936;2023-03-15T15:19:48;97200;;;3.2;81
68489;BME280;55481;48.764;8.936;2023-03-15T15:22:18;97200;;;3.2;80.5
68489;BME280;55481;48.764;8.936;2023-03-15T15:27:26;97200;;;3.3;80
68489;BME280;55481;48.764;8.936;2023-03-15T15:32:27;97200;;;3.3;80
68489;BME280;55481;48.764;8.936;2023-03-15T15:34:59;97200;;;3.3;80
68489;BME280;55481;48.764;8.936;2023-03-15T15:37:36;97190;;;3.3;79.5
68489;BME280;55481;48.764;8.936;2023-03-15T15:40:07;97190;;;3.2;79.5
68489;BME280;55481;48.764;8.936;2023-03-15T15:47:31;97200;;;3;80.5
68489;BME280;55481;48.764;8.936;2023-03-15T15:50:04;97200;;;3.1;80
68489;BME280;55481;48.764;8.936;2023-03-15T15:52:34;97200;;;3.1;80
68489;BME280;55481;48.764;8.936;2023-03-15T15:55:08;97200;;;3.2;80
68489;BME280;55481;48.764;8.936;2023-03-15T15:57:35;97210;;;3.3;79.5
68489;BME280;55481;48.764;8.936;2023-03-15T16:00:14;97210;;;3.2;79.5
68489;BME280;55481;48.764;8.936;2023-03-15T16:05:10;97220;;;2.9;80.5
68489;BME280;55481;48.764;8.936;2023-03-15T16:07:40;97220;;;2.9;80.5
68489;BME280;55481;48.764;8.936;2023-03-15T16:10:15;97220;;;3.1;80
68489;BME280;55481;48.764;8.936;2023-03-15T16:12:48;97220;;;3;80
68489;BME280;55481;48.764;8.936;2023-03-15T16:15:18;97220;;;2.9;80.5
68489;BME280;55481;48.764;8.936;2023-03-15T16:18:07;97220;;;3;80.5
68489;BME280;55481;48.764;8.936;2023-03-15T16:20:20;97220;;;3;80
68489;BME280;55481;48.764;8.936;2023-03-15T16:22:51;97230;;;3;80
68489;BME280;55481;48.764;8.936;2023-03-15T16:25:22;97220;;;3;80
68489;BME280;55481;48.764;8.936;2023-03-15T16:30:24;97230;;;3.2;80
68489;BME280;55481;48.764;8.936;2023-03-15T16:32:45;97230;;;3.2;80
68489;BME280;55481;48.764;8.936;2023-03-15T16:35:16;97230;;;3.2;80
68489;BME280;55481;48.764;8.936;2023-03-15T16:37:48;97240;;;3.2;80
68489;BME280;55481;48.764;8.936;2023-03-15T16:40:19;97230;;;3.2;80
68489;BME280;55481;48.764;8.936;2023-03-15T16:43:01;97230;;;3.3;80
68489;BME280;55481;48.764;8.936;2023-03-15T16:45:20;97230;;;3.3;80
68489;BME280;55481;48.764;8.936;2023-03-15T16:47:51;97230;;;3.3;79.5
68489;BME280;55481;48.764;8.936;2023-03-15T16:58:14;97230;;;3.3;79.5
68489;BME280;55481;48.764;8.936;2023-03-15T17:00:43;97240;;;3.2;80
68489;BME280;55481;48.764;8.936;2023-03-15T17:03:01;97250;;;3.1;80
68489;BME280;55481;48.764;8.936;2023-03-15T17:08:01;97260;;;3.1;80
68489;BME280;55481;48.764;8.936;2023-03-15T17:10:32;97260;;;3;80
68489;BME280;55481;48.764;8.936;2023-03-15T17:13:08;97260;;;3;80
68489;BME280;55481;48.764;8.936;2023-03-15T17:15:37;97270;;;2.9;80
68489;BME280;55481;48.764;8.936;2023-03-15T17:20:25;97270;;;2.7;80.5
68489;BME280;55481;48.764;8.936;2023-03-15T17:22:56;97270;;;2.7;80.5
68489;BME280;55481;48.764;8.936;2023-03-15T17:25:27;97260;;;2.7;80.5
68489;BME280;55481;48.764;8.936;2023-03-15T17:27:51;97270;;;2.6;80.5
68489;BME280;55481;48.764;8.936;2023-03-15T17:35:26;97280;;;2.8;80
68489;BME280;55481;48.764;8.936;2023-03-15T17:37:54;97280;;;2.7;80.5
68489;BME280;55481;48.764;8.936;2023-03-15T17:40:26;97270;;;2.7;80.5
68489;BME280;55481;48.764;8.936;2023-03-15T17:42:57;97280;;;2.7;80.5
68489;BME280;55481;48.764;8.936;2023-03-15T17:45:28;97280;;;2.7;80.5
68489;BME280;55481;48.764;8.936;2023-03-15T17:48:04;97280;;;2.8;80
68489;BME280;55481;48.764;8.936;2023-03-15T17:50:42;97280;;;2.8;80
68489;BME280;55481;48.764;8.936;2023-03-15T17:53:14;97280;;;2.9;80
68489;BME280;55481;48.764;8.936;2023-03-15T18:03:03;97300;;;2.9;80
68489;BME280;55481;48.764;8.936;2023-03-15T18:05:33;97300;;;2.8;80.5
68489;BME280;55481;48.764;8.936;2023-03-15T18:08:04;97290;;;2.7;80
68489;BME280;55481;48.764;8.936;2023-03-15T18:10:35;97300;;;2.7;80.5
68489;BME280;55481;48.764;8.936;2023-03-15T18:13:06;97300;;;2.8;80
68489;BME280;55481;48.764;8.936;2023-03-15T18:15:36;97300;;;2.7;80
68489;BME280;55481;48.764;8.936;2023-03-15T18:18:07;97310;;;2.7;80.5
68489;BME280;55481;48.764;8.936;2023-03-15T18:20:39;97310;;;2.7;80.5
68489;BME280;55481;48.764;8.936;2023-03-15T18:23:10;97310;;;2.6;80.5
68489;BME280;55481;48.764;8.936;2023-03-15T18:25:40;97320;;;2.5;80.5
68489;BME280;55481;48.764;8.936;2023-03-15T18:28:11;97330;;;2.4;80.5
68489;BME280;55481;48.764;8.936;2023-03-15T18:38:19;97320;;;2.2;80.5
68489;BME280;55481;48.764;8.936;2023-03-15T18:40:50;97320;;;2.2;80.5
68489;BME280;55481;48.764;8.936;2023-03-15T18:43:22;97320;;;2.1;80.5
68489;BME280;55481;48.764;8.936;2023-03-15T18:48:15;97320;;;2;80.5
68489;BME280;55481;48.764;8.936;2023-03-15T18:50:46;97320;;;2;80.5
68489;BME280;55481;48.764;8.936;2023-03-15T18:53:17;97320;;;1.9;80.5
68489;BME280;55481;48.764;8.936;2023-03-15T19:00:49;97320;;;1.8;81
68489;BME280;55481;48.764;8.936;2023-03-15T19:05:49;97330;;;1.6;81
68489;BME280;55481;48.764;8.936;2023-03-15T19:08:27;97320;;;1.6;81
68489;BME280;55481;48.764;8.936;2023-03-15T19:10:59;97330;;;1.5;81
68489;BME280;55481;48.764;8.936;2023-03-15T19:13:42;97320;;;1.5;81
68489;BME280;55481;48.764;8.936;2023-03-15T19:16:00;97320;;;1.5;81
68489;BME280;55481;48.764;8.936;2023-03-15T19:18:37;97320;;;1.5;81
68489;BME280;55481;48.764;8.936;2023-03-15T19:23:34;97320;;;1.3;81
68489;BME280;55481;48.764;8.936;2023-03-15T19:26:04;97320;;;1.3;81.5
68489;BME280;55481;48.764;8.936;2023-03-15T19:31:12;97330;;;1.3;81
68489;BME280;55481;48.764;8.936;2023-03-15T19:33:43;97330;;;1.3;81
68489;BME280;55481;48.764;8.936;2023-03-15T19:36:06;97340;;;1.2;81
68489;BME280;55481;48.764;8.936;2023-03-15T19:38:37;97340;;;1.2;81
68489;BME280;55481;48.764;8.936;2023-03-15T19:41:08;97350;;;1.1;81
68489;BME280;55481;48.764;8.936;2023-03-15T19:43:39;97350;;;1.1;81.5
68489;BME280;55481;48.764;8.936;2023-03-15T19:48:48;97360;;;1.1;81
68489;BME280;55481;48.764;8.936;2023-03-15T19:51:20;97360;;;1;81.5
68489;BME280;55481;48.764;8.936;2023-03-15T19:58:51;97360;;;0.9;81.5
68489;BME280;55481;48.764;8.936;2023-03-15T20:01:22;97370;;;0.9;81.5
68489;BME280;55481;48.764;8.936;2023-03-15T20:03:52;97360;;;0.8;81.5
68489;BME280;55481;48.764;8.936;2023-03-15T20:06:22;97360;;;0.8;81.5
68489;BME280;55481;48.764;8.936;2023-03-15T20:11:16;97370;;;0.7;81.5
68489;BME280;55481;48.764;8.936;2023-03-15T20:13:47;97370;;;0.6;81.5
68489;BME280;55481;48.764;8.936;2023-03-15T20:16:18;97370;;;0.6;81.5
68489;BME280;55481;48.764;8.936;2023-03-15T20:18:56;97370;;;0.6;81.5
68489;BME280;55481;48.764;8.936;2023-03-15T20:26:29;97370;;;0.7;81
68489;BME280;55481;48.764;8.936;2023-03-15T20:28:59;97370;;;0.8;81
68489;BME280;55481;48.764;8.936;2023-03-15T20:33:53;97380;;;0.5;81.5
68489;BME280;55481;48.764;8.936;2023-03-15T20:36:24;97380;;;0.5;81.5
68489;BME280;55481;48.764;8.936;2023-03-15T20:38:55;97380;;;0.5;81
68489;BME280;55481;48.764;8.936;2023-03-15T20:46:21;97380;;;0.4;81.5
68489;BME280;55481;48.764;8.936;2023-03-15T20:48:51;97380;;;0.5;81.5